Rodman, Iowa
Current Conditions -  °F | °C
As of 5:55 AM on Friday 26 Dec 2014 (Local Time) from KAXA Reporting Station
Haze Haze  
Wind Chill: -5°   Ceiling: 300
Heat Index:   Visibility: 3mi
Dew Point:   Wind: 13mph
Humidity: 100%   Direction: 360°N
Pressure: 29.88"   Gusts: NA
Location:  43.0372°N, 94.5003°W
Report Text: KAXA 261155Z AUTO 36011KT 3SM BR OVC003 00/00 A2988 RMK AO2
Loading
Personal Weather Stations






























Interactive Weather Map New forecast layout! Learn more

10-Day Weather Forecast

Advertisements
Track Severe Weather on mobile